Time;durP1;ratioP1;P1;durP2;ratioP2;P2;SDS_P1;SDS_P2;PMS_P1;PMS_P2;Temp;Humidity;BMP_temperature;BMP_pressure;BME280_temperature;BME280_humidity;BME280_pressure;Samples;Min_cycle;Max_cycle;Signal;HPM_P1;HPM_P2
2022/05/25 00:00:43;;;;;;;0.45;0.45;;;9.50;99.90;;;;;;5016240;28;20042;-71
2022/05/25 00:03:09;;;;;;;0.40;0.40;;;9.50;99.90;;;;;;4999113;28;20056;-71
2022/05/25 00:05:35;;;;;;;0.40;0.40;;;9.40;99.90;;;;;;4998806;28;20046;-71
2022/05/25 00:08:01;;;;;;;0.50;0.50;;;9.40;99.90;;;;;;5014258;28;20485;-70
2022/05/25 00:10:27;;;;;;;0.60;0.60;;;9.40;99.90;;;;;;5016408;28;20125;-70
2022/05/25 00:12:52;;;;;;;0.40;0.40;;;9.40;99.90;;;;;;5016478;28;20089;-71
2022/05/25 00:15:18;;;;;;;0.50;0.50;;;9.40;99.90;;;;;;5016428;28;20041;-71
2022/05/25 00:17:43;;;;;;;0.50;0.50;;;9.40;99.90;;;;;;4999035;28;20119;-71
2022/05/25 00:20:10;;;;;;;0.40;0.40;;;9.40;99.90;;;;;;4982656;28;20077;-70
2022/05/25 00:22:45;;;;;;;0.50;0.50;;;9.40;99.90;;;;;;5016230;28;20038;-71
2022/05/25 00:25:19;;;;;;;0.60;0.60;;;9.40;99.90;;;;;;4998694;28;20041;-69
2022/05/25 00:27:44;;;;;;;0.50;0.50;;;9.40;99.90;;;;;;5016336;28;20132;-70
2022/05/25 00:30:12;;;;;;;1.63;1.52;;;9.40;99.90;;;;;;5016119;28;20093;-70
2022/05/25 00:32:37;;;;;;;0.43;0.43;;;9.40;99.90;;;;;;5016147;28;20061;-71
2022/05/25 00:35:04;;;;;;;0.50;0.50;;;9.40;99.90;;;;;;5015943;28;20042;-69
2022/05/25 00:37:30;;;;;;;0.50;0.50;;;9.40;99.90;;;;;;5016295;28;20038;-71
2022/05/25 00:39:55;;;;;;;1.70;0.60;;;9.30;99.90;;;;;;4998659;28;20049;-69
2022/05/25 00:42:21;;;;;;;0.40;0.40;;;9.30;99.90;;;;;;4998896;28;20502;-71
2022/05/25 00:44:46;;;;;;;0.40;0.40;;;9.30;99.90;;;;;;4998678;28;20099;-71
2022/05/25 00:47:16;;;;;;;0.50;0.50;;;9.30;99.90;;;;;;5015764;28;20061;-72
2022/05/25 00:49:42;;;;;;;0.50;0.50;;;9.30;99.90;;;;;;5015811;28;20045;-70
2022/05/25 00:52:13;;;;;;;0.75;0.65;;;9.30;99.90;;;;;;5015547;28;20351;-70
2022/05/25 00:54:51;;;;;;;0.60;0.60;;;9.30;99.90;;;;;;4992886;28;20049;-70
2022/05/25 00:57:30;;;;;;;0.57;0.57;;;9.30;99.90;;;;;;4998310;28;20054;-72
2022/05/25 01:00:10;;;;;;;0.40;0.40;;;9.30;99.90;;;;;;5015323;28;20473;-71
2022/05/25 01:02:40;;;;;;;0.63;0.63;;;9.20;99.90;;;;;;5015467;28;20458;-71
2022/05/25 01:05:06;;;;;;;0.40;0.40;;;9.20;99.90;;;;;;5015913;28;20111;-70
2022/05/25 01:07:51;;;;;;;0.52;0.52;;;9.20;99.90;;;;;;5015740;28;20089;-72
2022/05/25 01:10:35;;;;;;;0.60;0.60;;;9.10;99.90;;;;;;5010766;28;20042;-72
2022/05/25 01:13:14;;;;;;;0.60;0.60;;;9.10;99.90;;;;;;5015386;28;20057;-71
2022/05/25 01:16:17;;;;;;;0.70;0.70;;;9.10;99.90;;;;;;5015762;28;20128;-71
2022/05/25 01:18:59;;;;;;;0.55;0.55;;;9.10;99.90;;;;;;4974964;28;20407;-70
2022/05/25 01:21:46;;;;;;;0.60;0.60;;;9.10;99.90;;;;;;4995694;28;20046;-71
2022/05/25 01:24:24;;;;;;;0.52;0.52;;;9.10;99.90;;;;;;4996656;28;20443;-71
2022/05/25 01:27:15;;;;;;;0.55;0.55;;;9.10;99.90;;;;;;4998224;28;20508;-70
2022/05/25 01:29:53;;;;;;;0.55;0.55;;;9.10;99.90;;;;;;5015164;28;20041;-72
2022/05/25 01:32:33;;;;;;;0.50;0.50;;;9.10;99.90;;;;;;4998238;28;20045;-72
2022/05/25 01:35:07;;;;;;;0.47;0.45;;;9.10;99.90;;;;;;5014528;28;20534;-70
2022/05/25 01:37:46;;;;;;;1.02;0.98;;;9.00;99.90;;;;;;5015181;28;20370;-70
2022/05/25 01:40:30;;;;;;;1.13;1.13;;;9.00;99.90;;;;;;5002811;28;20046;-69
2022/05/25 01:43:03;;;;;;;0.50;0.50;;;9.00;99.90;;;;;;4995191;28;20058;-69
2022/05/25 01:45:33;;;;;;;0.50;0.50;;;9.00;99.90;;;;;;5007828;28;20041;-72
2022/05/25 01:48:04;;;;;;;1.38;1.10;;;9.00;99.90;;;;;;4997491;28;20054;-70
2022/05/25 01:50:37;;;;;;;0.50;0.50;;;8.90;99.90;;;;;;5014968;28;20057;-72
2022/05/25 01:53:07;;;;;;;0.75;0.75;;;8.90;99.90;;;;;;5015267;28;20038;-70
2022/05/25 01:55:39;;;;;;;0.90;0.82;;;8.90;99.90;;;;;;5014981;28;20051;-71
2022/05/25 01:58:11;;;;;;;0.40;0.40;;;8.90;99.90;;;;;;4997635;28;20050;-71
2022/05/25 02:00:41;;;;;;;0.55;0.55;;;8.80;99.90;;;;;;4997593;28;20148;-70
2022/05/25 02:06:27;;;;;;;0.40;0.40;;;8.80;99.90;;;;;;4997590;28;20129;-70
2022/05/25 02:09:20;;;;;;;0.60;0.60;;;8.80;99.90;;;;;;5015420;28;20111;-70
2022/05/25 02:11:50;;;;;;;0.50;0.50;;;8.80;99.90;;;;;;5015155;28;20351;-69
2022/05/25 02:14:37;;;;;;;0.70;0.70;;;8.80;99.90;;;;;;5007440;28;20054;-70
2022/05/25 02:17:30;;;;;;;0.82;0.82;;;8.70;99.90;;;;;;5004835;28;20437;-70
2022/05/25 02:20:02;;;;;;;1.10;1.00;;;8.70;99.90;;;;;;5014440;28;20058;-70
2022/05/25 02:22:42;;;;;;;0.60;0.60;;;8.70;99.90;;;;;;4997922;28;20058;-70
2022/05/25 02:25:16;;;;;;;1.13;0.88;;;8.70;99.90;;;;;;4998950;28;20042;-70
2022/05/25 02:27:51;;;;;;;1.17;0.70;;;8.70;99.90;;;;;;5018881;28;20347;-70
2022/05/25 02:30:20;;;;;;;0.70;0.70;;;8.70;99.90;;;;;;5018084;28;20046;-70
2022/05/25 02:33:03;;;;;;;0.60;0.60;;;8.70;99.90;;;;;;5018303;28;20046;-70
2022/05/25 02:35:30;;;;;;;0.65;0.65;;;8.70;99.90;;;;;;5018506;28;20180;-72
2022/05/25 02:38:04;;;;;;;0.60;0.60;;;8.70;99.90;;;;;;5001828;28;20061;-71
2022/05/25 02:40:31;;;;;;;0.60;0.60;;;8.70;99.90;;;;;;5015631;28;20045;-70
2022/05/25 02:42:57;;;;;;;0.50;0.50;;;8.70;99.90;;;;;;5017848;28;20045;-70
2022/05/25 02:45:23;;;;;;;1.75;1.50;;;8.70;99.90;;;;;;5000259;28;20054;-71
2022/05/25 02:47:48;;;;;;;0.60;0.60;;;8.80;99.90;;;;;;5000831;28;20042;-71
2022/05/25 02:50:14;;;;;;;0.50;0.50;;;8.80;99.90;;;;;;5000458;28;20053;-70
2022/05/25 02:52:39;;;;;;;0.55;0.55;;;8.80;99.90;;;;;;5017914;28;20053;-70
2022/05/25 02:55:05;;;;;;;0.55;0.55;;;8.80;99.90;;;;;;5017889;28;20042;-70
2022/05/25 02:57:32;;;;;;;0.80;0.80;;;8.80;99.90;;;;;;5018378;28;20077;-70
2022/05/25 02:59:57;;;;;;;0.55;0.55;;;8.70;99.90;;;;;;5017663;28;20042;-71
2022/05/25 03:02:23;;;;;;;0.40;0.40;;;8.70;99.90;;;;;;5018137;28;20115;-71
2022/05/25 03:04:49;;;;;;;0.80;0.80;;;8.70;99.90;;;;;;5000105;28;20060;-71
2022/05/25 03:07:14;;;;;;;0.88;0.70;;;8.70;99.90;;;;;;5017588;28;20053;-69
2022/05/25 03:09:40;;;;;;;0.40;0.40;;;8.70;99.90;;;;;;5017665;28;20053;-70
2022/05/25 03:12:07;;;;;;;0.52;0.52;;;8.70;99.90;;;;;;5017566;28;20115;-71
2022/05/25 03:14:33;;;;;;;2.20;0.88;;;8.70;99.90;;;;;;5017728;28;20042;-70
2022/05/25 03:17:08;;;;;;;0.50;0.50;;;8.70;99.90;;;;;;5017351;28;20130;-71
2022/05/25 03:19:34;;;;;;;0.70;0.70;;;8.70;99.90;;;;;;5000099;28;20061;-70
2022/05/25 03:22:00;;;;;;;0.90;0.80;;;8.70;99.90;;;;;;5017618;28;20049;-69
2022/05/25 03:24:25;;;;;;;1.40;0.90;;;8.70;99.90;;;;;;4999880;28;20475;-71
2022/05/25 03:26:51;;;;;;;0.55;0.55;;;8.60;99.90;;;;;;5017630;28;20498;-71
2022/05/25 03:29:18;;;;;;;0.60;0.60;;;8.70;99.90;;;;;;5017547;28;20128;-70
2022/05/25 03:31:43;;;;;;;0.57;0.57;;;8.60;99.90;;;;;;5017226;28;20046;-71
2022/05/25 03:34:09;;;;;;;1.40;1.00;;;8.60;99.90;;;;;;5017052;28;20042;-71
2022/05/25 03:36:35;;;;;;;0.70;0.70;;;8.60;99.90;;;;;;5016610;28;20042;-70
2022/05/25 03:39:00;;;;;;;1.15;0.90;;;8.70;99.90;;;;;;4999887;28;20104;-70
2022/05/25 03:41:26;;;;;;;2.03;1.48;;;8.70;99.90;;;;;;5017079;28;20046;-71
2022/05/25 03:43:52;;;;;;;0.73;0.73;;;8.70;99.90;;;;;;4999934;28;20054;-70
2022/05/25 03:46:18;;;;;;;0.93;0.80;;;8.70;99.90;;;;;;5017366;28;20045;-70
2022/05/25 03:48:43;;;;;;;0.60;0.60;;;8.70;99.90;;;;;;4999352;28;20512;-70
2022/05/25 03:51:09;;;;;;;1.27;1.08;;;8.70;99.90;;;;;;5016580;28;20037;-71
2022/05/25 03:53:34;;;;;;;1.35;0.85;;;8.70;99.90;;;;;;5016734;28;20076;-72
2022/05/25 03:56:00;;;;;;;0.90;0.82;;;8.70;99.90;;;;;;5016749;28;20046;-69
2022/05/25 03:58:26;;;;;;;0.80;0.80;;;8.80;99.90;;;;;;5017087;28;20477;-69
2022/05/25 04:00:51;;;;;;;0.60;0.60;;;8.80;99.90;;;;;;4999874;28;20443;-71
2022/05/25 04:03:17;;;;;;;0.77;0.77;;;8.90;99.90;;;;;;4998203;28;20591;-71
2022/05/25 04:05:43;;;;;;;0.77;0.77;;;8.90;99.90;;;;;;5015849;28;20059;-72
2022/05/25 04:08:09;;;;;;;1.13;0.82;;;8.90;99.90;;;;;;5016583;28;20112;-72
2022/05/25 04:10:35;;;;;;;0.70;0.70;;;9.00;99.90;;;;;;5016590;28;20061;-71
2022/05/25 04:13:01;;;;;;;1.08;0.98;;;9.00;99.90;;;;;;4999551;28;20425;-71
2022/05/25 04:15:29;;;;;;;1.15;0.80;;;9.00;99.90;;;;;;4999447;28;20065;-68
2022/05/25 04:17:55;;;;;;;1.50;1.05;;;9.10;99.90;;;;;;5015939;28;20050;-70
2022/05/25 04:20:22;;;;;;;0.77;0.77;;;9.10;99.90;;;;;;4998609;28;20132;-68
2022/05/25 04:22:48;;;;;;;1.08;0.98;;;9.20;99.90;;;;;;5016165;28;20046;-68
2022/05/25 04:25:16;;;;;;;1.58;1.13;;;9.20;99.90;;;;;;5016553;28;20115;-69
2022/05/25 04:27:43;;;;;;;0.88;0.88;;;9.30;99.90;;;;;;4998813;28;20042;-67
2022/05/25 04:30:13;;;;;;;0.73;0.73;;;9.30;99.90;;;;;;5016167;28;20046;-68
2022/05/25 04:32:39;;;;;;;0.80;0.80;;;9.40;99.90;;;;;;5015292;28;20107;-69
2022/05/25 04:35:05;;;;;;;1.58;1.30;;;9.40;99.90;;;;;;5016092;28;20038;-68
2022/05/25 04:37:49;;;;;;;0.98;0.77;;;9.50;99.90;;;;;;5015873;28;20092;-68
2022/05/25 04:40:25;;;;;;;1.50;0.90;;;9.50;99.90;;;;;;5016318;28;20053;-68
2022/05/25 04:42:52;;;;;;;1.00;0.85;;;9.60;99.90;;;;;;4998589;28;20050;-69
2022/05/25 04:45:18;;;;;;;1.80;1.45;;;9.60;99.90;;;;;;5016118;28;20192;-68
2022/05/25 04:47:43;;;;;;;1.25;0.80;;;9.80;99.90;;;;;;4998307;28;20041;-70
2022/05/25 04:50:11;;;;;;;1.20;0.70;;;9.80;99.90;;;;;;4998606;28;20053;-68
2022/05/25 04:52:38;;;;;;;0.47;0.47;;;9.90;99.90;;;;;;4997699;28;20058;-71
2022/05/25 04:55:05;;;;;;;0.80;0.80;;;9.90;99.90;;;;;;4995714;28;20041;-70
2022/05/25 04:57:31;;;;;;;0.82;0.82;;;10.00;99.90;;;;;;5015202;28;20034;-69
2022/05/25 05:00:03;;;;;;;1.77;1.00;;;10.00;99.90;;;;;;5015513;28;20038;-69
2022/05/25 05:02:29;;;;;;;0.70;0.70;;;10.10;99.90;;;;;;4995915;28;20046;-68
2022/05/25 05:04:56;;;;;;;0.75;0.75;;;10.20;99.90;;;;;;4995707;28;20054;-68
2022/05/25 05:07:30;;;;;;;0.60;0.60;;;10.30;99.90;;;;;;5002802;28;20074;-69
2022/05/25 05:09:55;;;;;;;0.60;0.60;;;10.30;99.90;;;;;;4997477;28;20462;-68
2022/05/25 05:12:21;;;;;;;0.60;0.60;;;10.50;99.90;;;;;;5015076;28;20056;-66
2022/05/25 05:14:46;;;;;;;0.60;0.60;;;10.80;99.90;;;;;;5015045;28;20053;-66
2022/05/25 05:17:12;;;;;;;0.65;0.65;;;11.80;99.90;;;;;;5015377;28;20090;-68
2022/05/25 05:19:38;;;;;;;0.50;0.50;;;13.30;99.90;;;;;;5015216;28;20057;-67
2022/05/25 05:22:04;;;;;;;1.70;0.95;;;14.60;99.90;;;;;;5015503;28;20041;-69
2022/05/25 05:24:32;;;;;;;0.70;0.70;;;15.90;99.90;;;;;;5014841;28;20069;-71
2022/05/25 05:26:57;;;;;;;0.88;0.80;;;17.00;99.90;;;;;;4997206;28;20042;-69
2022/05/25 05:29:24;;;;;;;1.55;1.05;;;17.90;99.90;;;;;;5012371;28;20053;-69
2022/05/25 05:31:50;;;;;;;2.50;2.20;;;18.60;99.90;;;;;;5009592;28;20045;-69
2022/05/25 05:34:17;;;;;;;0.75;0.75;;;19.60;99.90;;;;;;5019088;28;20053;-71
2022/05/25 05:36:50;;;;;;;5.75;1.70;;;20.00;99.90;;;;;;5012463;28;20049;-71
2022/05/25 05:39:18;;;;;;;0.55;0.40;;;20.30;99.90;;;;;;5013795;28;20053;-71
2022/05/25 05:41:47;;;;;;;0.40;0.40;;;20.80;99.90;;;;;;5014437;28;20100;-70
2022/05/25 05:44:16;;;;;;;0.47;0.47;;;21.20;99.90;;;;;;5013961;28;20042;-71
2022/05/25 05:46:43;;;;;;;0.40;0.40;;;21.60;99.90;;;;;;4979886;28;20057;-71
2022/05/25 05:49:10;;;;;;;0.63;0.52;;;22.10;99.90;;;;;;5014626;28;20065;-72
2022/05/25 05:51:36;;;;;;;0.40;0.40;;;22.20;99.90;;;;;;4994123;28;20050;-73
2022/05/25 05:54:05;;;;;;;0.80;0.77;;;22.50;99.90;;;;;;5014460;28;20370;-73
2022/05/25 05:56:34;;;;;;;0.28;0.28;;;22.60;99.90;;;;;;4994619;28;20123;-73
2022/05/25 05:59:02;;;;;;;1.17;0.75;;;22.70;99.90;;;;;;4987476;28;20123;-74
2022/05/25 06:01:28;;;;;;;0.40;0.40;;;22.90;99.80;;;;;;5021512;28;20130;-72
2022/05/25 06:03:53;;;;;;;0.40;0.40;;;23.20;99.90;;;;;;5018027;28;20386;-74
2022/05/25 06:06:19;;;;;;;0.68;0.57;;;23.40;99.00;;;;;;5017112;28;20042;-75
2022/05/25 06:08:46;;;;;;;1.08;0.88;;;23.40;98.90;;;;;;5017918;28;20081;-71
2022/05/25 06:11:17;;;;;;;1.83;0.63;;;23.70;98.60;;;;;;5018399;28;20041;-69
2022/05/25 06:13:43;;;;;;;1.65;0.77;;;24.00;98.50;;;;;;5000945;28;20059;-71
2022/05/25 06:21:37;;;;;;;1.10;0.50;;;24.70;96.90;;;;;;5018010;28;20085;-71
2022/05/25 06:24:04;;;;;;;0.55;0.55;;;24.60;96.00;;;;;;5000261;28;20466;-70
2022/05/25 06:26:31;;;;;;;0.40;0.40;;;24.80;96.60;;;;;;5017227;28;20458;-71
2022/05/25 06:29:01;;;;;;;0.40;0.35;;;25.30;96.20;;;;;;4997083;28;20117;-71
2022/05/25 06:31:28;;;;;;;1.02;0.40;;;25.60;95.90;;;;;;5017857;28;20037;-72
2022/05/25 06:33:54;;;;;;;3.08;0.93;;;25.60;94.90;;;;;;5017277;28;20417;-71
2022/05/25 06:36:24;;;;;;;0.40;0.40;;;25.80;95.40;;;;;;5018238;28;20050;-73
2022/05/25 06:38:50;;;;;;;0.30;0.30;;;26.10;94.60;;;;;;5000806;28;20466;-71
2022/05/25 06:41:15;;;;;;;0.45;0.45;;;26.20;93.90;;;;;;5018001;28;20129;-70
2022/05/25 06:43:42;;;;;;;0.30;0.30;;;26.40;94.00;;;;;;5017554;28;20084;-72
2022/05/25 06:46:09;;;;;;;0.43;0.43;;;26.30;92.10;;;;;;5017885;28;20108;-71
2022/05/25 06:48:35;;;;;;;1.25;1.15;;;26.00;93.50;;;;;;5017410;28;20058;-70
2022/05/25 06:51:19;;;;;;;0.77;0.77;;;25.60;92.20;;;;;;5017773;28;20050;-71
2022/05/25 06:53:44;;;;;;;0.40;0.40;;;26.10;93.60;;;;;;5000540;28;20058;-71
2022/05/25 06:56:10;;;;;;;0.20;0.20;;;26.30;92.50;;;;;;5017556;28;20096;-70
2022/05/25 06:58:36;;;;;;;0.30;0.30;;;26.20;93.00;;;;;;5017598;28;20041;-72
2022/05/25 07:01:03;;;;;;;0.30;0.30;;;26.20;92.30;;;;;;4999774;28;20050;-73
2022/05/25 07:03:29;;;;;;;0.70;0.50;;;26.00;92.20;;;;;;5017718;28;20048;-70
2022/05/25 07:05:55;;;;;;;0.20;0.20;;;25.90;92.60;;;;;;5000476;28;20057;-69
2022/05/25 07:08:20;;;;;;;0.20;0.20;;;25.70;92.10;;;;;;4999930;28;20454;-68
2022/05/25 07:10:46;;;;;;;0.30;0.30;;;25.80;93.20;;;;;;5000071;28;20049;-67
2022/05/25 07:13:17;;;;;;;0.17;0.17;;;25.90;92.90;;;;;;5017268;28;20049;-68
2022/05/25 07:15:43;;;;;;;0.28;0.28;;;26.20;91.80;;;;;;5017566;28;20336;-70
2022/05/25 07:18:09;;;;;;;0.15;0.15;;;26.60;91.70;;;;;;5017466;28;20057;-71
2022/05/25 07:20:35;;;;;;;0.10;0.10;;;26.60;91.60;;;;;;5010267;28;20061;-71
2022/05/25 07:23:00;;;;;;;1.10;0.32;;;26.10;91.00;;;;;;5017216;28;20045;-69
2022/05/25 07:25:26;;;;;;;1.00;0.77;;;26.00;90.80;;;;;;4999704;28;20480;-73
2022/05/25 07:27:52;;;;;;;3.90;1.30;;;26.00;90.90;;;;;;5013770;28;20485;-71
2022/05/25 07:30:18;;;;;;;0.20;0.20;;;25.60;91.50;;;;;;5017215;28;20133;-72
2022/05/25 07:32:45;;;;;;;0.30;0.30;;;25.90;91.10;;;;;;5016787;28;20459;-71
2022/05/25 07:35:13;;;;;;;1.20;0.45;;;25.60;92.00;;;;;;5016794;28;20433;-70
2022/05/25 07:37:42;;;;;;;0.88;0.30;;;25.90;90.90;;;;;;5015441;28;20037;-71
2022/05/25 07:40:13;;;;;;;0.17;0.17;;;26.00;91.90;;;;;;5016628;28;20366;-71
2022/05/25 07:42:45;;;;;;;0.17;0.17;;;26.30;91.70;;;;;;5016869;28;20117;-71
2022/05/25 07:45:11;;;;;;;0.50;0.50;;;26.80;92.20;;;;;;5016792;28;20432;-71
2022/05/25 07:47:37;;;;;;;0.20;0.20;;;26.60;91.20;;;;;;4999746;28;20046;-71
2022/05/25 07:50:04;;;;;;;0.65;0.50;;;26.20;89.50;;;;;;5016775;28;20359;-71
2022/05/25 07:52:34;;;;;;;0.30;0.30;;;25.60;91.20;;;;;;4999264;28;20045;-72
2022/05/25 07:55:00;;;;;;;0.22;0.22;;;25.50;91.50;;;;;;5016314;28;20470;-71
2022/05/25 07:57:25;;;;;;;1.25;1.08;;;26.00;92.20;;;;;;5016503;28;20050;-70
2022/05/25 07:59:51;;;;;;;2.75;0.65;;;26.00;90.70;;;;;;5016206;28;20050;-71
2022/05/25 08:07:56;;;;;;;0.45;0.40;;;25.50;90.00;;;;;;5016344;28;20054;-71
2022/05/25 08:10:25;;;;;;;0.50;0.50;;;25.30;91.10;;;;;;5016384;28;20069;-70
2022/05/25 08:12:55;;;;;;;0.10;0.10;;;25.10;90.30;;;;;;5013296;28;20052;-71
2022/05/25 08:15:22;;;;;;;0.20;0.20;;;24.80;90.20;;;;;;5015269;28;20054;-70
2022/05/25 08:17:48;;;;;;;0.77;0.50;;;25.00;91.00;;;;;;5015622;28;20062;-73
2022/05/25 08:20:14;;;;;;;0.30;0.30;;;25.10;90.80;;;;;;5015660;28;20520;-70
2022/05/25 08:22:40;;;;;;;0.20;0.20;;;25.30;90.20;;;;;;4998519;28;20099;-71
2022/05/25 08:25:07;;;;;;;0.10;0.10;;;25.70;90.80;;;;;;4998469;28;20053;-73
2022/05/25 08:27:36;;;;;;;0.15;0.10;;;25.90;90.40;;;;;;5016246;28;20434;-73
2022/05/25 08:30:02;;;;;;;0.52;0.20;;;25.90;90.40;;;;;;5016518;28;20099;-74
2022/05/25 08:32:27;;;;;;;0.30;0.30;;;25.30;87.20;;;;;;5015578;28;20370;-75
2022/05/25 08:34:53;;;;;;;0.52;0.40;;;25.20;88.90;;;;;;5016450;28;20038;-73
2022/05/25 08:37:18;;;;;;;0.20;0.20;;;24.50;87.70;;;;;;5015942;28;20050;-73
2022/05/25 08:39:44;;;;;;;0.17;0.17;;;23.80;88.80;;;;;;5016087;28;20042;-73
2022/05/25 08:42:15;;;;;;;0.10;0.10;;;23.60;91.30;;;;;;4998819;28;20054;-73
2022/05/25 08:44:43;;;;;;;0.20;0.20;;;23.40;90.10;;;;;;5015618;28;20116;-73
2022/05/25 08:47:10;;;;;;;0.13;0.13;;;23.50;92.10;;;;;;5015831;28;20041;-73
2022/05/25 08:49:39;;;;;;;0.28;0.28;;;23.50;91.50;;;;;;5015718;28;20466;-76
2022/05/25 08:52:31;;;;;;;2.33;1.33;;;23.60;90.90;;;;;;5015679;28;20100;-76
2022/05/25 08:55:08;;;;;;;0.20;0.20;;;23.80;90.90;;;;;;5015450;28;20112;-73
2022/05/25 08:57:40;;;;;;;0.43;0.43;;;23.30;89.00;;;;;;5013019;28;20058;-74
2022/05/25 09:00:16;;;;;;;0.10;0.10;;;22.80;90.00;;;;;;5015911;28;20042;-73
2022/05/25 09:02:55;;;;;;;0.17;0.17;;;22.30;91.50;;;;;;5013125;28;20057;-74
2022/05/25 09:05:22;;;;;;;0.20;0.20;;;22.20;93.00;;;;;;4998263;28;20073;-74
2022/05/25 09:08:11;;;;;;;0.13;0.13;;;21.90;93.30;;;;;;4997978;28;20132;-74
2022/05/25 09:10:52;;;;;;;0.60;0.52;;;21.90;93.50;;;;;;5008647;28;20050;-73
2022/05/25 09:13:25;;;;;;;0.28;0.25;;;21.90;94.10;;;;;;4997937;28;20044;-74
2022/05/25 09:18:43;;;;;;;1.23;0.40;;;21.90;94.00;;;;;;5013661;28;20053;-73
2022/05/25 09:21:09;;;;;;;0.23;0.23;;;21.90;93.60;;;;;;5015187;28;20060;-74
2022/05/25 09:23:36;;;;;;;0.20;0.20;;;21.60;93.50;;;;;;5015295;28;20129;-75
2022/05/25 09:26:02;;;;;;;0.20;0.20;;;21.80;94.10;;;;;;5015181;28;20042;-73
2022/05/25 09:28:44;;;;;;;0.20;0.20;;;21.50;94.30;;;;;;5014915;28;20089;-75
2022/05/25 09:31:15;;;;;;;0.20;0.20;;;21.40;93.90;;;;;;4982042;28;20133;-75
2022/05/25 09:33:48;;;;;;;0.30;0.30;;;21.40;95.10;;;;;;5015127;28;20049;-73
2022/05/25 09:36:30;;;;;;;0.85;0.50;;;21.30;95.20;;;;;;5014882;28;20046;-73
2022/05/25 09:39:03;;;;;;;0.20;0.20;;;21.30;95.10;;;;;;5015018;28;20046;-75
2022/05/25 09:41:31;;;;;;;0.63;0.63;;;21.30;94.70;;;;;;5014778;28;20050;-74
2022/05/25 09:43:58;;;;;;;0.73;0.73;;;21.70;94.30;;;;;;5015232;28;20123;-72
2022/05/25 09:47:01;;;;;;;0.20;0.20;;;21.60;93.50;;;;;;5015027;28;20046;-74
2022/05/25 09:49:45;;;;;;;0.22;0.22;;;21.50;93.80;;;;;;4996880;28;20061;-72
2022/05/25 09:52:15;;;;;;;0.20;0.20;;;21.40;94.60;;;;;;4997703;28;20050;-73
2022/05/25 09:54:41;;;;;;;0.28;0.28;;;21.50;95.40;;;;;;5014763;28;20049;-74
2022/05/25 09:57:13;;;;;;;0.20;0.20;;;21.50;94.20;;;;;;5014785;28;20038;-72
2022/05/25 09:59:56;;;;;;;0.10;0.10;;;21.80;94.20;;;;;;5014635;28;20045;-73
2022/05/25 10:02:34;;;;;;;1.15;0.77;;;21.70;94.30;;;;;;5015284;28;20053;-73
2022/05/25 10:05:16;;;;;;;0.20;0.20;;;21.70;95.00;;;;;;5014959;28;20054;-74
2022/05/25 10:08:08;;;;;;;0.20;0.20;;;21.60;94.30;;;;;;5014609;28;20049;-74
2022/05/25 10:10:56;;;;;;;0.30;0.20;;;21.50;94.20;;;;;;5014667;28;20049;-72
2022/05/25 10:13:35;;;;;;;0.65;0.55;;;21.10;93.50;;;;;;5014960;28;20160;-73
2022/05/25 10:16:20;;;;;;;0.45;0.40;;;20.90;94.90;;;;;;5014790;28;20370;-74
2022/05/25 10:18:46;;;;;;;0.20;0.20;;;21.20;95.40;;;;;;5014356;28;20062;-74
2022/05/25 10:21:31;;;;;;;0.20;0.20;;;21.20;94.60;;;;;;5014664;28;20385;-72
2022/05/25 10:23:58;;;;;;;0.25;0.25;;;21.10;93.80;;;;;;4997743;28;20476;-73
2022/05/25 10:26:38;;;;;;;0.30;0.30;;;21.10;94.30;;;;;;5014615;28;20037;-74
2022/05/25 10:36:45;;;;;;;0.30;0.22;;;21.10;94.70;;;;;;5014433;28;20092;-73
2022/05/25 10:38:06;;;;;;;0.38;0.38;;;20.80;94.70;;;;;;5014627;28;20054;-73
2022/05/25 10:40:32;;;;;;;0.30;0.30;;;20.70;95.20;;;;;;5014733;28;20129;-74
2022/05/25 10:42:58;;;;;;;1.23;0.40;;;20.40;95.30;;;;;;5014782;28;20410;-73
2022/05/25 10:45:32;;;;;;;0.50;0.50;;;20.00;94.30;;;;;;4997822;28;20050;-73
2022/05/25 10:48:23;;;;;;;0.20;0.20;;;20.20;95.20;;;;;;5000694;28;20045;-74
2022/05/25 10:51:04;;;;;;;2.50;1.75;;;20.50;96.00;;;;;;5017784;28;20056;-74
2022/05/25 10:54:44;;;;;;;0.35;0.35;;;20.70;95.30;;;;;;5017859;28;20041;-73
2022/05/25 10:56:53;;;;;;;0.30;0.30;;;20.70;94.50;;;;;;5017815;28;20150;-73
2022/05/25 10:59:38;;;;;;;0.30;0.30;;;20.90;95.20;;;;;;5000926;28;20057;-72
2022/05/25 11:02:16;;;;;;;0.35;0.30;;;21.30;96.00;;;;;;5017588;28;20454;-74
2022/05/25 11:05:04;;;;;;;0.20;0.20;;;21.50;93.90;;;;;;5017266;28;20046;-74
2022/05/25 11:07:36;;;;;;;0.20;0.20;;;21.30;94.10;;;;;;5017373;28;20466;-73
2022/05/25 11:10:23;;;;;;;0.30;0.30;;;21.10;94.60;;;;;;5017359;28;20034;-74
2022/05/25 11:13:11;;;;;;;0.30;0.30;;;20.80;94.20;;;;;;5017146;28;20053;-73
2022/05/25 11:16:04;;;;;;;0.20;0.20;;;20.70;93.90;;;;;;5017219;28;20513;-74
2022/05/25 11:18:48;;;;;;;0.83;0.53;;;20.60;94.10;;;;;;5017174;28;20053;-73
2022/05/25 11:21:28;;;;;;;0.30;0.30;;;20.90;95.60;;;;;;5017142;28;20351;-72
2022/05/25 11:24:13;;;;;;;0.30;0.30;;;21.30;93.40;;;;;;4999865;28;20045;-74
2022/05/25 11:27:10;;;;;;;0.20;0.20;;;21.40;93.70;;;;;;5017218;28;20443;-73
2022/05/25 11:29:55;;;;;;;0.25;0.25;;;21.30;93.80;;;;;;5017414;28;20042;-73
2022/05/25 11:32:29;;;;;;;0.20;0.20;;;21.00;93.70;;;;;;5000196;28;20116;-73
2022/05/25 11:35:14;;;;;;;0.43;0.40;;;20.90;94.10;;;;;;5017340;28;20050;-74
2022/05/25 11:37:57;;;;;;;0.30;0.30;;;21.30;93.60;;;;;;5000032;28;20080;-73
2022/05/25 11:40:35;;;;;;;1.15;0.80;;;21.60;94.40;;;;;;5016961;28;20107;-73
2022/05/25 11:43:13;;;;;;;0.40;0.40;;;22.00;93.60;;;;;;5000089;28;20042;-74
2022/05/25 11:46:10;;;;;;;0.20;0.20;;;22.10;93.50;;;;;;5016963;28;20438;-75
2022/05/25 11:48:53;;;;;;;0.30;0.30;;;21.90;93.10;;;;;;5016797;28;20473;-73
2022/05/25 11:51:56;;;;;;;0.77;0.68;;;21.70;93.20;;;;;;5016763;28;20046;-75
2022/05/25 11:54:26;;;;;;;0.82;0.75;;;21.50;93.80;;;;;;5002653;28;20079;-73
2022/05/25 11:57:01;;;;;;;0.50;0.30;;;21.20;94.40;;;;;;5015352;28;20111;-73
2022/05/25 12:00:01;;;;;;;2.80;1.65;;;20.70;97.70;;;;;;5016641;28;20045;-74
2022/05/25 12:02:54;;;;;;;0.63;0.63;;;20.30;97.90;;;;;;5016619;28;20147;-73
2022/05/25 12:05:46;;;;;;;1.45;1.05;;;19.40;99.50;;;;;;5016335;28;20049;-73
2022/05/25 12:08:18;;;;;;;0.20;0.20;;;18.90;99.90;;;;;;5016372;28;20124;-73
2022/05/25 12:10:45;;;;;;;0.20;0.20;;;18.50;99.90;;;;;;4982280;28;20057;-73
2022/05/25 12:13:42;;;;;;;0.30;0.30;;;18.20;99.90;;;;;;5016350;28;20045;-72
2022/05/25 12:16:19;;;;;;;0.22;0.22;;;18.20;99.90;;;;;;5016421;28;20089;-72
2022/05/25 12:19:22;;;;;;;0.30;0.30;;;18.70;99.90;;;;;;5016097;28;20054;-74
2022/05/25 12:22:06;;;;;;;0.25;0.20;;;18.80;99.90;;;;;;5015856;28;20163;-73
2022/05/25 12:24:49;;;;;;;0.38;0.38;;;19.20;99.90;;;;;;4996117;28;20497;-74
2022/05/25 12:27:32;;;;;;;0.30;0.30;;;19.50;99.90;;;;;;5016220;28;20192;-74
2022/05/25 12:30:07;;;;;;;0.30;0.30;;;19.70;99.90;;;;;;5015951;28;20458;-73
2022/05/25 12:32:35;;;;;;;0.43;0.43;;;19.80;99.90;;;;;;5016332;28;20085;-74
2022/05/25 12:35:01;;;;;;;0.20;0.20;;;20.10;99.90;;;;;;5016119;28;20061;-73
2022/05/25 12:37:30;;;;;;;0.20;0.20;;;20.40;99.90;;;;;;5015376;28;20045;-75
2022/05/25 12:40:05;;;;;;;0.90;0.50;;;20.50;99.90;;;;;;5015944;28;20172;-74
2022/05/25 12:42:32;;;;;;;0.40;0.40;;;20.70;99.90;;;;;;5015656;28;20042;-74
2022/05/25 12:50:55;;;;;;;0.17;0.17;;;21.30;99.90;;;;;;5015644;28;20085;-73
2022/05/25 12:53:30;;;;;;;1.67;1.08;;;21.40;98.60;;;;;;4982826;28;20061;-73
2022/05/25 12:55:59;;;;;;;0.30;0.30;;;21.40;98.50;;;;;;5015653;28;20045;-73
2022/05/25 12:58:40;;;;;;;0.20;0.20;;;21.70;99.90;;;;;;5015458;28;20100;-73
2022/05/25 13:01:08;;;;;;;1.15;0.73;;;21.80;97.60;;;;;;4998234;28;20339;-73
2022/05/25 13:03:47;;;;;;;0.22;0.22;;;21.80;98.50;;;;;;5015364;28;20101;-73
2022/05/25 13:06:16;;;;;;;0.25;0.25;;;21.80;98.30;;;;;;5015522;28;20045;-74
2022/05/25 13:08:52;;;;;;;0.15;0.15;;;21.70;98.00;;;;;;5015290;28;20462;-76
2022/05/25 13:11:39;;;;;;;0.15;0.15;;;21.80;98.20;;;;;;4998172;28;20053;-73
2022/05/25 13:14:16;;;;;;;0.10;0.10;;;21.80;96.90;;;;;;5015053;28;20049;-73
2022/05/25 13:16:42;;;;;;;0.20;0.20;;;21.80;96.20;;;;;;5015373;28;20061;-73
2022/05/25 13:19:28;;;;;;;0.22;0.22;;;22.00;96.80;;;;;;5015287;28;20379;-74
2022/05/25 13:22:03;;;;;;;0.32;0.32;;;22.00;95.10;;;;;;5014971;28;20085;-73
2022/05/25 13:25:06;;;;;;;0.10;0.10;;;22.00;94.70;;;;;;5015129;28;20353;-72
2022/05/25 13:28:10;;;;;;;0.10;0.10;;;21.90;94.20;;;;;;5014914;28;20054;-73
2022/05/25 13:30:38;;;;;;;0.30;0.30;;;21.80;93.40;;;;;;4997834;28;20120;-75
2022/05/25 13:33:19;;;;;;;0.85;0.77;;;21.60;94.10;;;;;;5014999;28;20056;-72
2022/05/25 13:36:11;;;;;;;0.10;0.10;;;21.40;93.60;;;;;;5015282;28;20422;-75
2022/05/25 13:38:50;;;;;;;0.10;0.10;;;21.20;93.30;;;;;;5000855;28;20573;-73
2022/05/25 13:41:52;;;;;;;0.20;0.20;;;21.20;92.60;;;;;;5015619;28;20042;-74
2022/05/25 13:44:33;;;;;;;0.10;0.10;;;21.30;91.20;;;;;;5015227;28;20124;-74
2022/05/25 13:46:58;;;;;;;0.20;0.20;;;21.00;93.40;;;;;;5014898;28;20045;-73